sensor_id;sensor_type;location;lat;lon;timestamp;P1;P2;P0
74440;PMS7003;62870;54.692;25.284;2022-10-26T00:03:54;16.2;14.4;9
74440;PMS7003;62870;54.692;25.284;2022-10-26T00:08:44;17;14.8;8.8
74440;PMS7003;62870;54.692;25.284;2022-10-26T00:14:07;15.8;13.8;9
74440;PMS7003;62870;54.692;25.284;2022-10-26T00:19:25;15.4;13.8;9.8
74440;PMS7003;62870;54.692;25.284;2022-10-26T00:24:17;16.4;13.6;9.4
74440;PMS7003;62870;54.692;25.284;2022-10-26T00:29:15;15.6;14.2;9
74440;PMS7003;62870;54.692;25.284;2022-10-26T00:34:16;13.4;13;7.8
74440;PMS7003;62870;54.692;25.284;2022-10-26T00:39:13;12.6;11;8
74440;PMS7003;62870;54.692;25.284;2022-10-26T00:49:19;16.6;13.2;8
74440;PMS7003;62870;54.692;25.284;2022-10-26T00:53:58;13.2;11.4;8
74440;PMS7003;62870;54.692;25.284;2022-10-26T00:58:43;12.2;11.8;7.6
74440;PMS7003;62870;54.692;25.284;2022-10-26T01:03:57;12.8;11.2;7.6
74440;PMS7003;62870;54.692;25.284;2022-10-26T01:09:21;12.2;11;8
74440;PMS7003;62870;54.692;25.284;2022-10-26T01:14:14;12;11.4;7.4
74440;PMS7003;62870;54.692;25.284;2022-10-26T01:19:09;12.3;10.3;6.8
74440;PMS7003;62870;54.692;25.284;2022-10-26T01:23:53;11.6;10.2;8
74440;PMS7003;62870;54.692;25.284;2022-10-26T01:29:23;11.4;10.2;6
74440;PMS7003;62870;54.692;25.284;2022-10-26T01:34:28;12.2;11;7.4
74440;PMS7003;62870;54.692;25.284;2022-10-26T01:39:22;11.8;11.2;7.2
74440;PMS7003;62870;54.692;25.284;2022-10-26T01:43:47;13.4;12.6;8.6
74440;PMS7003;62870;54.692;25.284;2022-10-26T01:49:02;12.4;11.2;7.2
74440;PMS7003;62870;54.692;25.284;2022-10-26T01:54:01;12.2;10.4;6.8
74440;PMS7003;62870;54.692;25.284;2022-10-26T01:59:12;12;10.6;7.2
74440;PMS7003;62870;54.692;25.284;2022-10-26T02:04:12;13.4;11.6;8.6
74440;PMS7003;62870;54.692;25.284;2022-10-26T02:09:19;13.4;11.8;8.6
74440;PMS7003;62870;54.692;25.284;2022-10-26T02:14:29;13.4;11.8;9
74440;PMS7003;62870;54.692;25.284;2022-10-26T02:18:47;13;11.3;8.3
74440;PMS7003;62870;54.692;25.284;2022-10-26T02:24:29;15.8;13.2;9.4
74440;PMS7003;62870;54.692;25.284;2022-10-26T02:29:27;16.6;13.4;8.6
74440;PMS7003;62870;54.692;25.284;2022-10-26T02:34:12;16.2;12.2;8.4
74440;PMS7003;62870;54.692;25.284;2022-10-26T02:38:45;14.8;12;8.8
74440;PMS7003;62870;54.692;25.284;2022-10-26T02:43:56;13;11.2;8
74440;PMS7003;62870;54.692;25.284;2022-10-26T02:49:27;12.6;11.4;8
74440;PMS7003;62870;54.692;25.284;2022-10-26T02:54:24;12.4;10.8;7
74440;PMS7003;62870;54.692;25.284;2022-10-26T02:59:18;15.4;13.2;8.2
74440;PMS7003;62870;54.692;25.284;2022-10-26T03:04:15;15.4;12.6;7.8
74440;PMS7003;62870;54.692;25.284;2022-10-26T03:09:13;15;13;8.2
74440;PMS7003;62870;54.692;25.284;2022-10-26T03:14:09;14.6;12.4;8.4
74440;PMS7003;62870;54.692;25.284;2022-10-26T03:19:19;14.5;12.3;8.8
74440;PMS7003;62870;54.692;25.284;2022-10-26T03:24:03;12.2;11.2;7
74440;PMS7003;62870;54.692;25.284;2022-10-26T03:28:59;15.4;13.8;8.6
74440;PMS7003;62870;54.692;25.284;2022-10-26T03:33:45;14.8;13.6;8.8
74440;PMS7003;62870;54.692;25.284;2022-10-26T03:39:27;14;12.4;8.6
74440;PMS7003;62870;54.692;25.284;2022-10-26T03:44:17;15.6;12.4;9
74440;PMS7003;62870;54.692;25.284;2022-10-26T03:49:05;15.4;13;8.8
74440;PMS7003;62870;54.692;25.284;2022-10-26T03:54:03;14.8;12.2;9.2
74440;PMS7003;62870;54.692;25.284;2022-10-26T03:59:17;13.4;11.4;8.4
74440;PMS7003;62870;54.692;25.284;2022-10-26T04:04:27;13.4;12.4;7.8
74440;PMS7003;62870;54.692;25.284;2022-10-26T04:09:09;17.2;14.8;10
74440;PMS7003;62870;54.692;25.284;2022-10-26T04:13:59;15.8;14;9.2
74440;PMS7003;62870;54.692;25.284;2022-10-26T04:18:45;15;13;8.8
74440;PMS7003;62870;54.692;25.284;2022-10-26T04:23:59;13.2;12.4;8.2
74440;PMS7003;62870;54.692;25.284;2022-10-26T04:29:07;16.4;13.8;9.4
74440;PMS7003;62870;54.692;25.284;2022-10-26T04:34:07;13.6;12.2;8
74440;PMS7003;62870;54.692;25.284;2022-10-26T04:39:01;13.6;13;8.6
74440;PMS7003;62870;54.692;25.284;2022-10-26T04:44:27;15.6;13.8;8
74440;PMS7003;62870;54.692;25.284;2022-10-26T04:48:46;13.8;12.4;8.8
74440;PMS7003;62870;54.692;25.284;2022-10-26T04:54:27;16.6;14.4;9.8
74440;PMS7003;62870;54.692;25.284;2022-10-26T04:59:27;16.2;14.6;10
74440;PMS7003;62870;54.692;25.284;2022-10-26T05:04:01;13.6;12.8;8.8
74440;PMS7003;62870;54.692;25.284;2022-10-26T05:08:45;17.8;16;9.6
74440;PMS7003;62870;54.692;25.284;2022-10-26T05:13:45;14.8;13.8;9.2
74440;PMS7003;62870;54.692;25.284;2022-10-26T05:19:29;14;11.8;8
74440;PMS7003;62870;54.692;25.284;2022-10-26T05:24:23;14.4;12.6;8
74440;PMS7003;62870;54.692;25.284;2022-10-26T05:29:17;18.2;14.6;9.6
74440;PMS7003;62870;54.692;25.284;2022-10-26T05:34:17;15.8;14;9.8
74440;PMS7003;62870;54.692;25.284;2022-10-26T05:39:17;18.2;15;10.2
74440;PMS7003;62870;54.692;25.284;2022-10-26T05:44:19;15;14.4;10
74440;PMS7003;62870;54.692;25.284;2022-10-26T05:49:23;16.8;14.8;10.2
74440;PMS7003;62870;54.692;25.284;2022-10-26T05:53:45;16.8;14.4;9.8
74440;PMS7003;62870;54.692;25.284;2022-10-26T05:58:46;16.8;15.4;10.4
74440;PMS7003;62870;54.692;25.284;2022-10-26T06:04:03;21.2;18.6;11.2
74440;PMS7003;62870;54.692;25.284;2022-10-26T06:09:30;17.2;14.8;9.8
74440;PMS7003;62870;54.692;25.284;2022-10-26T06:14:32;17.8;16;10.2
74440;PMS7003;62870;54.692;25.284;2022-10-26T06:19:33;20.4;17.4;10.8
74440;PMS7003;62870;54.692;25.284;2022-10-26T06:24:08;18.8;16;9.8
74440;PMS7003;62870;54.692;25.284;2022-10-26T06:29:33;16.6;14.6;10
74440;PMS7003;62870;54.692;25.284;2022-10-26T06:33:47;18.2;16.4;10.6
74440;PMS7003;62870;54.692;25.284;2022-10-26T06:39:11;18;16;10.2
74440;PMS7003;62870;54.692;25.284;2022-10-26T06:44:11;18.8;16.6;9.6
74440;PMS7003;62870;54.692;25.284;2022-10-26T06:48:47;18.2;15.4;9.6
74440;PMS7003;62870;54.692;25.284;2022-10-26T06:53:48;17.8;15.8;9.8
74440;PMS7003;62870;54.692;25.284;2022-10-26T06:59:12;20;18;11.6
74440;PMS7003;62870;54.692;25.284;2022-10-26T07:04:11;23.4;20.8;11.4
74440;PMS7003;62870;54.692;25.284;2022-10-26T07:09:25;20.2;15.4;10.6
74440;PMS7003;62870;54.692;25.284;2022-10-26T07:13:57;20.6;18.6;11.2
74440;PMS7003;62870;54.692;25.284;2022-10-26T07:19:05;18.8;16;10
74440;PMS7003;62870;54.692;25.284;2022-10-26T07:24:31;16.3;14.3;9.3
74440;PMS7003;62870;54.692;25.284;2022-10-26T07:29:17;20.2;16.4;9.8
74440;PMS7003;62870;54.692;25.284;2022-10-26T07:34:31;18.4;15;8.6
74440;PMS7003;62870;54.692;25.284;2022-10-26T07:38:46;17.8;15.4;10.4
74440;PMS7003;62870;54.692;25.284;2022-10-26T07:43:45;19.4;17.4;10.6
74440;PMS7003;62870;54.692;25.284;2022-10-26T07:49:29;18.6;17;10.2
74440;PMS7003;62870;54.692;25.284;2022-10-26T07:54:21;17;16.4;10.6
74440;PMS7003;62870;54.692;25.284;2022-10-26T07:59:10;18.6;16.8;10
74440;PMS7003;62870;54.692;25.284;2022-10-26T08:04:17;18.2;14.8;9.8
74440;PMS7003;62870;54.692;25.284;2022-10-26T08:09:19;19;15.6;9.8
74440;PMS7003;62870;54.692;25.284;2022-10-26T08:13:57;14.2;12.4;7.6
74440;PMS7003;62870;54.692;25.284;2022-10-26T08:19:24;13.8;12.4;8.2
74440;PMS7003;62870;54.692;25.284;2022-10-26T08:24:31;15;12.3;8.5
74440;PMS7003;62870;54.692;25.284;2022-10-26T08:29:02;13.2;12.4;7.8
74440;PMS7003;62870;54.692;25.284;2022-10-26T08:33:59;14.2;13.4;8.4
74440;PMS7003;62870;54.692;25.284;2022-10-26T08:39:30;12.6;11.4;7.6
74440;PMS7003;62870;54.692;25.284;2022-10-26T08:44:37;13;11.8;7.4
74440;PMS7003;62870;54.692;25.284;2022-10-26T08:49:36;14.8;12.2;8.8
74440;PMS7003;62870;54.692;25.284;2022-10-26T08:54:09;12.4;11.2;7.2
74440;PMS7003;62870;54.692;25.284;2022-10-26T08:59:35;13.6;12;8.2
74440;PMS7003;62870;54.692;25.284;2022-10-26T09:04:32;12.8;12.2;7.8
74440;PMS7003;62870;54.692;25.284;2022-10-26T09:09:09;11.4;9.8;6.4
74440;PMS7003;62870;54.692;25.284;2022-10-26T09:14:12;10.8;9;6.6
74440;PMS7003;62870;54.692;25.284;2022-10-26T09:19:08;8.8;7.6;4.8
74440;PMS7003;62870;54.692;25.284;2022-10-26T09:24:01;10.3;9.3;5
74440;PMS7003;62870;54.692;25.284;2022-10-26T09:29:10;10.4;8.6;5.6
74440;PMS7003;62870;54.692;25.284;2022-10-26T09:34:15;9.6;8.2;5.6
74440;PMS7003;62870;54.692;25.284;2022-10-26T09:39:34;7.6;6.6;5.2
74440;PMS7003;62870;54.692;25.284;2022-10-26T09:44:20;9;7.8;5.2
74440;PMS7003;62870;54.692;25.284;2022-10-26T09:49:22;7;6.6;5
74440;PMS7003;62870;54.692;25.284;2022-10-26T09:54:32;9.4;8.6;5.8
74440;PMS7003;62870;54.692;25.284;2022-10-26T09:59:22;8.8;7.6;5.6
74440;PMS7003;62870;54.692;25.284;2022-10-26T10:04:37;8.4;8.2;6.2
74440;PMS7003;62870;54.692;25.284;2022-10-26T10:09:03;8;7.4;6.2
74440;PMS7003;62870;54.692;25.284;2022-10-26T10:13:46;8.6;7.8;5.6
74440;PMS7003;62870;54.692;25.284;2022-10-26T10:19:32;8.8;7.4;5.8
74440;PMS7003;62870;54.692;25.284;2022-10-26T10:24:25;9.2;7.4;5
74440;PMS7003;62870;54.692;25.284;2022-10-26T10:29:13;8.3;7.5;6
74440;PMS7003;62870;54.692;25.284;2022-10-26T10:34:15;8;7.8;5.6
74440;PMS7003;62870;54.692;25.284;2022-10-26T10:39:31;7.2;6.8;5.6
74440;PMS7003;62870;54.692;25.284;2022-10-26T10:44:13;7;6.4;5.2
74440;PMS7003;62870;54.692;25.284;2022-10-26T10:49:22;6.8;6.6;5.2
74440;PMS7003;62870;54.692;25.284;2022-10-26T10:54:32;5.4;4.8;4
74440;PMS7003;62870;54.692;25.284;2022-10-26T10:58:59;5.2;3.8;2.8
74440;PMS7003;62870;54.692;25.284;2022-10-26T11:04:00;4.4;4.2;3
74440;PMS7003;62870;54.692;25.284;2022-10-26T11:09:30;5;4.2;3.4
74440;PMS7003;62870;54.692;25.284;2022-10-26T11:14:33;4.8;4.4;3
74440;PMS7003;62870;54.692;25.284;2022-10-26T11:19:35;3.6;3.2;2.6
74440;PMS7003;62870;54.692;25.284;2022-10-26T11:23:46;3.6;3;2.6
74440;PMS7003;62870;54.692;25.284;2022-10-26T11:29:32;5;4;3.3
74440;PMS7003;62870;54.692;25.284;2022-10-26T11:34:35;2.8;2.8;2.4
74440;PMS7003;62870;54.692;25.284;2022-10-26T11:39:13;2.6;2.4;2.2
74440;PMS7003;62870;54.692;25.284;2022-10-26T11:44:10;4.2;4.2;3.4
74440;PMS7003;62870;54.692;25.284;2022-10-26T11:48:46;3.8;3.6;2.8
74440;PMS7003;62870;54.692;25.284;2022-10-26T11:54:00;4;4;3.4
74440;PMS7003;62870;54.692;25.284;2022-10-26T11:59:13;3.8;3.6;2.4
74440;PMS7003;62870;54.692;25.284;2022-10-26T12:04:10;3.8;3.2;2.8
74440;PMS7003;62870;54.692;25.284;2022-10-26T12:09:35;1.8;1.8;1.8
74440;PMS7003;62870;54.692;25.284;2022-10-26T12:14:23;2.8;2.2;1.6
74440;PMS7003;62870;54.692;25.284;2022-10-26T12:18:46;3;3;2.2
74440;PMS7003;62870;54.692;25.284;2022-10-26T12:24:32;4;3;2.4
74440;PMS7003;62870;54.692;25.284;2022-10-26T12:28:48;5;3.8;2.8
74440;PMS7003;62870;54.692;25.284;2022-10-26T12:35:27;2.8;2.2;1.6
74440;PMS7003;62870;54.692;25.284;2022-10-26T12:38:55;3.4;2.8;1.8
74440;PMS7003;62870;54.692;25.284;2022-10-26T12:43:46;2.6;2.4;2
74440;PMS7003;62870;54.692;25.284;2022-10-26T12:54:26;3.6;3.4;2.2
74440;PMS7003;62870;54.692;25.284;2022-10-26T12:59:24;3.8;3.4;2.2
74440;PMS7003;62870;54.692;25.284;2022-10-26T13:04:24;4.6;3.6;3.2
74440;PMS7003;62870;54.692;25.284;2022-10-26T13:09:36;5.2;3.8;3
74440;PMS7003;62870;54.692;25.284;2022-10-26T13:14:15;4.2;3.6;3
74440;PMS7003;62870;54.692;25.284;2022-10-26T13:19:24;3.6;3.6;3
74440;PMS7003;62870;54.692;25.284;2022-10-26T13:24:33;3.2;2.4;2.4
74440;PMS7003;62870;54.692;25.284;2022-10-26T13:29:00;5;4.5;3.5
74440;PMS7003;62870;54.692;25.284;2022-10-26T13:33:46;5;4.6;4
74440;PMS7003;62870;54.692;25.284;2022-10-26T13:39:30;4.6;4.2;3.6
74440;PMS7003;62870;54.692;25.284;2022-10-26T13:44:35;4.2;3.6;3
74440;PMS7003;62870;54.692;25.284;2022-10-26T13:49:35;4.4;4.2;3
74440;PMS7003;62870;54.692;25.284;2022-10-26T13:54:14;4.6;4.4;3.6
74440;PMS7003;62870;54.692;25.284;2022-10-26T13:59:32;4.4;4;3.4
74440;PMS7003;62870;54.692;25.284;2022-10-26T14:04:32;5.8;5.2;4.2
74440;PMS7003;62870;54.692;25.284;2022-10-26T14:08:54;5.4;5;4.2
74440;PMS7003;62870;54.692;25.284;2022-10-26T14:14:12;4.8;4.4;3.4
74440;PMS7003;62870;54.692;25.284;2022-10-26T14:19:00;4.6;4.4;3.2
74440;PMS7003;62870;54.692;25.284;2022-10-26T14:24:02;5.6;5.2;3.8
74440;PMS7003;62870;54.692;25.284;2022-10-26T14:29:13;6.8;6;4.5
74440;PMS7003;62870;54.692;25.284;2022-10-26T14:34:00;5.6;5.2;4
74440;PMS7003;62870;54.692;25.284;2022-10-26T14:39:32;5.2;4.8;4
74440;PMS7003;62870;54.692;25.284;2022-10-26T14:44:20;4.6;4.2;3.6
74440;PMS7003;62870;54.692;25.284;2022-10-26T14:49:11;4.2;3.8;2.8
74440;PMS7003;62870;54.692;25.284;2022-10-26T14:54:17;5.6;4.8;3.6
74440;PMS7003;62870;54.692;25.284;2022-10-26T14:59:34;4.2;3.6;3
74440;PMS7003;62870;54.692;25.284;2022-10-26T15:04:33;3.2;2.6;2.4
74440;PMS7003;62870;54.692;25.284;2022-10-26T15:09:44;4.4;4;2.8
74440;PMS7003;62870;54.692;25.284;2022-10-26T15:14:12;4;3.8;3.4
74440;PMS7003;62870;54.692;25.284;2022-10-26T15:18:47;4.4;4.2;3.6
74440;PMS7003;62870;54.692;25.284;2022-10-26T15:24:33;4.2;4.2;3.6
74440;PMS7003;62870;54.692;25.284;2022-10-26T15:29:51;4.6;4;3.4
74440;PMS7003;62870;54.692;25.284;2022-10-26T15:34:21;5;4.5;3.3
74440;PMS7003;62870;54.692;25.284;2022-10-26T15:39:20;4.2;4.2;3.4
74440;PMS7003;62870;54.692;25.284;2022-10-26T15:44:20;5.2;4.6;3.4
74440;PMS7003;62870;54.692;25.284;2022-10-26T15:49:15;5.4;4;3.2
74440;PMS7003;62870;54.692;25.284;2022-10-26T15:54:20;5.6;4.8;4
74440;PMS7003;62870;54.692;25.284;2022-10-26T15:58:58;6.4;5.4;4.2
74440;PMS7003;62870;54.692;25.284;2022-10-26T16:03:46;4.8;4.2;3.6
74440;PMS7003;62870;54.692;25.284;2022-10-26T16:08:47;5.4;4.4;3
74440;PMS7003;62870;54.692;25.284;2022-10-26T16:14:30;5.4;5.2;4
74440;PMS7003;62870;54.692;25.284;2022-10-26T16:19:18;5.6;4.8;3.8
74440;PMS7003;62870;54.692;25.284;2022-10-26T16:23:55;6.4;4.8;3.6
74440;PMS7003;62870;54.692;25.284;2022-10-26T16:29:06;5.8;5.2;4.2
74440;PMS7003;62870;54.692;25.284;2022-10-26T16:34:18;7;5.3;3.8
74440;PMS7003;62870;54.692;25.284;2022-10-26T16:39:28;5.4;4.2;2.6
74440;PMS7003;62870;54.692;25.284;2022-10-26T16:44:10;4.4;3.2;2.8
74440;PMS7003;62870;54.692;25.284;2022-10-26T16:48:46;5.2;4;2.8
74440;PMS7003;62870;54.692;25.284;2022-10-26T16:54:08;3.8;3.4;3
74440;PMS7003;62870;54.692;25.284;2022-10-26T16:58:46;5.2;4.4;3.2
74440;PMS7003;62870;54.692;25.284;2022-10-26T17:04:08;5.6;4.8;3
74440;PMS7003;62870;54.692;25.284;2022-10-26T17:08:54;5.4;4.8;4
74440;PMS7003;62870;54.692;25.284;2022-10-26T17:14:18;4.8;3.6;3
74440;PMS7003;62870;54.692;25.284;2022-10-26T17:19:30;5.6;4.4;3.4
74440;PMS7003;62870;54.692;25.284;2022-10-26T17:24:08;5.4;4.4;3.4
74440;PMS7003;62870;54.692;25.284;2022-10-26T17:29:32;5.2;4.4;3.2
74440;PMS7003;62870;54.692;25.284;2022-10-26T17:34:32;6.3;4.3;3.3
74440;PMS7003;62870;54.692;25.284;2022-10-26T17:39:08;8;5.6;4.2
74440;PMS7003;62870;54.692;25.284;2022-10-26T17:43:58;4;3.4;2.6
74440;PMS7003;62870;54.692;25.284;2022-10-26T17:48:46;5.2;3.6;2.8
74440;PMS7003;62870;54.692;25.284;2022-10-26T17:54:32;4.8;4;3
74440;PMS7003;62870;54.692;25.284;2022-10-26T17:59:20;4.8;4.2;3.2
74440;PMS7003;62870;54.692;25.284;2022-10-26T18:04:18;4.2;4;2.8
74440;PMS7003;62870;54.692;25.284;2022-10-26T18:09:18;4;3.2;2.6
74440;PMS7003;62870;54.692;25.284;2022-10-26T18:14:16;3.8;3.6;2.8
74440;PMS7003;62870;54.692;25.284;2022-10-26T18:19:08;3.8;3.2;2.4
74440;PMS7003;62870;54.692;25.284;2022-10-26T18:24:22;3.6;2.8;2.2
74440;PMS7003;62870;54.692;25.284;2022-10-26T18:28:58;3;3;2.6
74440;PMS7003;62870;54.692;25.284;2022-10-26T18:33:58;3;2.5;2
74440;PMS7003;62870;54.692;25.284;2022-10-26T18:38:58;3.2;2.6;2.2
74440;PMS7003;62870;54.692;25.284;2022-10-26T18:44:30;3;2.6;1.6
74440;PMS7003;62870;54.692;25.284;2022-10-26T18:49:24;3.6;2.2;1.2
74440;PMS7003;62870;54.692;25.284;2022-10-26T18:54:08;3.6;3;2
74440;PMS7003;62870;54.692;25.284;2022-10-26T18:58:46;2.4;2.2;2
74440;PMS7003;62870;54.692;25.284;2022-10-26T19:04:18;3.8;3;2.4
74440;PMS7003;62870;54.692;25.284;2022-10-26T19:09:32;4.4;3.8;2.4
74440;PMS7003;62870;54.692;25.284;2022-10-26T19:14:10;4.2;3.6;2.6
74440;PMS7003;62870;54.692;25.284;2022-10-26T19:18:46;4;4;2.4
74440;PMS7003;62870;54.692;25.284;2022-10-26T19:24:13;3.8;3.4;2.2
74440;PMS7003;62870;54.692;25.284;2022-10-26T19:28:46;3.4;2.8;2
74440;PMS7003;62870;54.692;25.284;2022-10-26T19:34:08;4;2.8;2.3
74440;PMS7003;62870;54.692;25.284;2022-10-26T19:38:46;4;3;2
74440;PMS7003;62870;54.692;25.284;2022-10-26T19:44:30;3.2;2.6;2
74440;PMS7003;62870;54.692;25.284;2022-10-26T19:49:20;1.8;1.8;1.6
74440;PMS7003;62870;54.692;25.284;2022-10-26T19:54:06;2.6;2;1.4
74440;PMS7003;62870;54.692;25.284;2022-10-26T19:59:32;2.4;1.8;1.8
74440;PMS7003;62870;54.692;25.284;2022-10-26T20:03:48;3;2.6;1.8
74440;PMS7003;62870;54.692;25.284;2022-10-26T20:09:30;2.8;2.6;1.8
74440;PMS7003;62870;54.692;25.284;2022-10-26T20:13:46;3.6;3.2;2
74440;PMS7003;62870;54.692;25.284;2022-10-26T20:18:58;3.6;3.2;2.4
74440;PMS7003;62870;54.692;25.284;2022-10-26T20:24:30;2.8;2.4;1.6
74440;PMS7003;62870;54.692;25.284;2022-10-26T20:29:20;2.8;2.4;1.6
74440;PMS7003;62870;54.692;25.284;2022-10-26T20:34:08;1.8;1.8;1.4
74440;PMS7003;62870;54.692;25.284;2022-10-26T20:39:16;3;2.8;2
74440;PMS7003;62870;54.692;25.284;2022-10-26T20:44:19;3;2.4;1.6
74440;PMS7003;62870;54.692;25.284;2022-10-26T20:48:56;2.4;2.4;1.6
74440;PMS7003;62870;54.692;25.284;2022-10-26T20:54:23;4;3;2.2
74440;PMS7003;62870;54.692;25.284;2022-10-26T20:59:34;3.8;2.6;2
74440;PMS7003;62870;54.692;25.284;2022-10-26T21:03:46;4.4;3.6;2.6
74440;PMS7003;62870;54.692;25.284;2022-10-26T21:09:04;5.2;4.6;3
74440;PMS7003;62870;54.692;25.284;2022-10-26T21:14:30;6;4.2;3.6
74440;PMS7003;62870;54.692;25.284;2022-10-26T21:19:28;5;4;3.4
74440;PMS7003;62870;54.692;25.284;2022-10-26T21:24:28;6.6;5;3.8
74440;PMS7003;62870;54.692;25.284;2022-10-26T21:28:46;4;3.8;3
74440;PMS7003;62870;54.692;25.284;2022-10-26T21:34:28;5;4;3.2
74440;PMS7003;62870;54.692;25.284;2022-10-26T21:39:28;5.5;4;3.5
74440;PMS7003;62870;54.692;25.284;2022-10-26T21:43:58;4.8;4.2;3.2
74440;PMS7003;62870;54.692;25.284;2022-10-26T21:48:46;5.6;4.2;3.4
74440;PMS7003;62870;54.692;25.284;2022-10-26T21:53:46;5.8;4.4;3
74440;PMS7003;62870;54.692;25.284;2022-10-26T21:58:57;5.6;5;3.8
74440;PMS7003;62870;54.692;25.284;2022-10-26T22:03:52;4;3.6;2.6
74440;PMS7003;62870;54.692;25.284;2022-10-26T22:08:44;6.8;5.2;3.4
74440;PMS7003;62870;54.692;25.284;2022-10-26T22:14:26;4.8;4.8;3.8
74440;PMS7003;62870;54.692;25.284;2022-10-26T22:19:18;6.2;5.2;3.2
74440;PMS7003;62870;54.692;25.284;2022-10-26T22:24:04;4;3.8;3
74440;PMS7003;62870;54.692;25.284;2022-10-26T22:29:28;4;3.6;3
74440;PMS7003;62870;54.692;25.284;2022-10-26T22:34:11;4.8;4.4;3.2
74440;PMS7003;62870;54.692;25.284;2022-10-26T22:39:26;4.5;4.3;3
74440;PMS7003;62870;54.692;25.284;2022-10-26T22:43:44;5.2;4.4;3
74440;PMS7003;62870;54.692;25.284;2022-10-26T22:48:57;4;3.6;2.6
74440;PMS7003;62870;54.692;25.284;2022-10-26T22:54:26;5;3.4;2.6
74440;PMS7003;62870;54.692;25.284;2022-10-26T22:59:18;3.8;3;2.4
74440;PMS7003;62870;54.692;25.284;2022-10-26T23:03:44;4.6;3.8;2.4
74440;PMS7003;62870;54.692;25.284;2022-10-26T23:09:18;4.2;4;3.2
74440;PMS7003;62870;54.692;25.284;2022-10-26T23:14:18;3.8;3.6;3
74440;PMS7003;62870;54.692;25.284;2022-10-26T23:19:08;3.8;3.6;3
74440;PMS7003;62870;54.692;25.284;2022-10-26T23:23:56;3.8;3.4;3
74440;PMS7003;62870;54.692;25.284;2022-10-26T23:29:20;4.2;3.2;2.8
74440;PMS7003;62870;54.692;25.284;2022-10-26T23:33:44;5;4.2;3.8
74440;PMS7003;62870;54.692;25.284;2022-10-26T23:38:54;3.3;3;2.8
74440;PMS7003;62870;54.692;25.284;2022-10-26T23:43:58;3.4;3.2;2.6
74440;PMS7003;62870;54.692;25.284;2022-10-26T23:49:28;5;3.4;2.8
74440;PMS7003;62870;54.692;25.284;2022-10-26T23:54:16;3;3;2.2
74440;PMS7003;62870;54.692;25.284;2022-10-26T23:59:06;3.8;3.2;2.4
